Time;durP1;ratioP1;P1;durP2;ratioP2;P2;SDS_P1;SDS_P2;PMS_P1;PMS_P2;Temp;Humidity;BMP_temperature;BMP_pressure;BME280_temperature;BME280_humidity;BME280_pressure;Samples;Min_cycle;Max_cycle;Signal;HPM_P1;HPM_P2
2021/10/16 00:01:22;;;;;;;21.45;2.63;;;6.70;99.90;;;;;;4981338;28;20034;-70
2021/10/16 00:03:47;;;;;;;21.15;2.95;;;6.40;99.90;;;;;;4996380;28;20038;-70
2021/10/16 00:06:13;;;;;;;25.40;2.70;;;6.40;99.90;;;;;;4981191;28;20031;-70
2021/10/16 00:08:38;;;;;;;14.23;2.15;;;6.30;99.90;;;;;;4980448;28;20035;-70
2021/10/16 00:11:04;;;;;;;19.05;2.22;;;6.30;99.90;;;;;;4981587;28;20509;-70
2021/10/16 00:13:29;;;;;;;20.42;3.35;;;6.70;99.90;;;;;;4982701;28;20426;-70
2021/10/16 00:15:55;;;;;;;17.80;2.08;;;;;;;;;;4980939;28;20046;-70
2021/10/16 00:18:21;;;;;;;15.70;1.90;;;;;;;;;;4981313;28;20044;-70
2021/10/16 00:20:47;;;;;;;18.23;2.38;;;;;;;;;;4981935;28;20034;-70
2021/10/16 00:23:13;;;;;;;17.08;2.13;;;;;;;;;;4981707;28;20030;-70
2021/10/16 00:25:39;;;;;;;9.02;2.58;;;;;;;;;;4981379;28;20072;-70
2021/10/16 00:28:05;;;;;;;19.60;4.18;;;;;;;;;;4980226;28;20120;-70
2021/10/16 00:30:31;;;;;;;18.30;2.30;;;;;;;;;;4980039;28;20038;-70
2021/10/16 00:32:56;;;;;;;24.60;4.25;;;6.30;99.90;;;;;;4981453;28;20030;-70
2021/10/16 00:35:22;;;;;;;17.38;2.45;;;;;;;;;;4997225;28;20034;-70
2021/10/16 00:37:48;;;;;;;19.88;2.80;;;;;;;;;;4981648;28;20755;-70
2021/10/16 00:40:14;;;;;;;15.00;2.28;;;;;;;;;;4961516;28;20030;-70
2021/10/16 00:42:40;;;;;;;11.95;2.22;;;;;;;;;;4994342;28;20045;-70
2021/10/16 00:45:06;;;;;;;11.15;1.90;;;;;;;;;;4977682;28;20038;-70
2021/10/16 00:47:32;;;;;;;17.95;2.85;;;;;;;;;;4994186;28;20044;-70
2021/10/16 00:49:58;;;;;;;13.55;2.10;;;;;;;;;;4961646;28;20121;-70
2021/10/16 00:52:24;;;;;;;15.63;2.45;;;;;;;;;;4980211;28;20041;-70
2021/10/16 00:54:50;;;;;;;14.48;2.60;;;;;;;;;;4978430;28;20030;-70
2021/10/16 00:57:17;;;;;;;16.33;2.08;;;6.80;99.90;;;;;;4976343;28;20176;-70
2021/10/16 00:59:42;;;;;;;14.85;2.58;;;;;;;;;;4995424;28;20121;-70
2021/10/16 01:02:08;;;;;;;18.17;3.72;;;;;;;;;;4979051;28;20442;-70
2021/10/16 01:04:35;;;;;;;11.43;2.63;;;;;;;;;;4993815;28;20031;-70
2021/10/16 01:07:09;;;;;;;17.42;2.40;;;6.30;99.90;;;;;;4994071;28;21170;-70
2021/10/16 01:09:35;;;;;;;17.60;3.28;;;;;;;;;;4977520;28;20045;-70
2021/10/16 01:12:00;;;;;;;18.55;2.80;;;;;;;;;;4995691;28;20049;-70
2021/10/16 01:14:27;;;;;;;25.77;2.83;;;;;;;;;;4978033;28;20068;-71
2021/10/16 01:16:53;;;;;;;15.77;2.15;;;6.50;99.90;;;;;;4974519;28;20155;-70
2021/10/16 01:19:19;;;;;;;13.02;2.72;;;;;;;;;;4995810;28;20578;-70
2021/10/16 01:21:45;;;;;;;18.77;2.60;;;;;;;;;;4993414;28;20030;-70
2021/10/16 01:24:11;;;;;;;15.02;2.17;;;;;;;;;;4993735;28;20036;-70
2021/10/16 01:26:37;;;;;;;16.33;3.20;;;;;;;;;;4978708;28;20031;-70
2021/10/16 01:29:03;;;;;;;22.40;2.55;;;;;;;;;;4975492;28;20058;-70
2021/10/16 01:31:29;;;;;;;14.93;2.95;;;;;;;;;;4979296;28;20033;-70
2021/10/16 01:33:55;;;;;;;19.05;2.70;;;;;;;;;;4977082;28;20045;-69
2021/10/16 01:36:21;;;;;;;12.55;2.08;;;;;;;;;;4981650;28;20499;-69
2021/10/16 01:38:47;;;;;;;15.27;2.05;;;;;;;;;;4996711;28;20873;-69
2021/10/16 01:41:13;;;;;;;18.73;2.85;;;;;;;;;;4980873;28;20133;-69
2021/10/16 01:43:40;;;;;;;22.92;3.38;;;;;;;;;;4980910;28;20092;-68
2021/10/16 01:46:06;;;;;;;16.85;3.28;;;;;;;;;;4961398;28;20030;-69
2021/10/16 01:48:34;;;;;;;17.05;3.00;;;;;;;;;;4996470;28;20038;-69
2021/10/16 01:51:00;;;;;;;12.13;3.08;;;;;;;;;;4997175;28;20042;-69
2021/10/16 01:53:30;;;;;;;31.05;5.60;;;;;;;;;;4981072;28;20113;-69
2021/10/16 01:56:02;;;;;;;14.63;2.72;;;;;;;;;;4996714;28;20038;-69
2021/10/16 01:58:33;;;;;;;10.52;1.92;;;;;;;;;;4996797;28;20038;-69
2021/10/16 02:01:18;;;;;;;20.30;2.63;;;;;;;;;;4981696;28;20050;-69
2021/10/16 02:03:48;;;;;;;14.38;2.60;;;;;;;;;;4995957;28;20527;-69
2021/10/16 02:06:21;;;;;;;21.33;3.03;;;;;;;;;;4980409;28;20037;-69
2021/10/16 02:08:53;;;;;;;13.10;2.03;;;;;;;;;;4993682;28;20149;-69
2021/10/16 02:11:19;;;;;;;25.50;2.78;;;;;;;;;;4997361;28;20043;-69
2021/10/16 02:13:52;;;;;;;17.83;3.03;;;;;;;;;;4980705;28;20031;-69
2021/10/16 02:16:18;;;;;;;19.38;2.55;;;;;;;;;;4997594;28;20034;-69
2021/10/16 02:18:50;;;;;;;15.45;2.10;;;;;;;;;;4979530;28;20041;-69
2021/10/16 02:21:19;;;;;;;19.55;2.78;;;;;;;;;;4995865;28;20450;-69
2021/10/16 02:23:45;;;;;;;22.52;3.10;;;;;;;;;;4979670;28;20885;-68
2021/10/16 02:26:13;;;;;;;15.82;2.40;;;;;;;;;;4996337;28;20030;-68
2021/10/16 02:28:43;;;;;;;17.20;2.95;;;;;;;;;;4978280;28;20042;-69
2021/10/16 02:31:28;;;;;;;18.67;2.30;;;;;;;;;;4996356;28;20036;-69
2021/10/16 02:33:56;;;;;;;14.23;1.75;;;;;;;;;;4995369;28;20041;-69
2021/10/16 02:36:28;;;;;;;15.10;2.75;;;;;;;;;;4979495;28;20042;-69
2021/10/16 02:38:54;;;;;;;16.73;2.40;;;;;;;;;;4993964;28;20144;-69
2021/10/16 02:41:20;;;;;;;19.38;2.92;;;;;;;;;;4995447;28;20658;-69
2021/10/16 02:43:46;;;;;;;42.13;6.85;;;;;;;;;;4977437;28;20062;-69
2021/10/16 02:46:13;;;;;;;15.70;2.20;;;;;;;;;;4995437;28;20759;-69
2021/10/16 02:48:39;;;;;;;18.63;2.78;;;5.90;99.90;;;;;;4978585;28;20621;-69
2021/10/16 02:51:05;;;;;;;13.30;2.83;;;;;;;;;;4994881;28;20048;-69
2021/10/16 02:53:31;;;;;;;14.18;1.85;;;;;;;;;;4979796;28;20026;-69
2021/10/16 02:56:04;;;;;;;11.80;2.25;;;;;;;;;;4963055;28;20045;-69
2021/10/16 02:58:31;;;;;;;9.65;2.10;;;;;;;;;;4994530;28;20036;-69
2021/10/16 03:00:57;;;;;;;15.82;2.95;;;5.80;99.90;;;;;;4979985;28;20034;-69
2021/10/16 03:03:23;;;;;;;21.42;3.15;;;;;;;;;;4994812;28;20034;-69
2021/10/16 03:05:49;;;;;;;19.52;2.40;;;;;;;;;;4979447;28;20100;-69
2021/10/16 03:08:17;;;;;;;15.57;2.30;;;5.90;99.90;;;;;;4980424;28;20042;-68
2021/10/16 03:10:43;;;;;;;11.85;2.15;;;5.20;99.90;;;;;;4981188;28;20687;-69
2021/10/16 03:13:10;;;;;;;12.15;2.60;;;5.30;99.90;;;;;;4980475;28;20039;-69
2021/10/16 03:15:35;;;;;;;17.30;3.88;;;5.50;99.90;;;;;;4983186;28;20059;-69
2021/10/16 03:18:01;;;;;;;14.00;2.30;;;5.50;99.90;;;;;;4981946;28;20030;-69
2021/10/16 03:20:29;;;;;;;9.70;2.08;;;5.40;99.90;;;;;;4981964;28;20038;-69
2021/10/16 03:23:00;;;;;;;15.10;2.97;;;5.10;99.90;;;;;;4981099;28;20217;-69
2021/10/16 03:25:26;;;;;;;11.20;2.67;;;5.00;99.90;;;;;;4996079;28;20038;-69
2021/10/16 03:27:52;;;;;;;11.40;2.47;;;5.20;99.90;;;;;;4978286;28;20527;-69
2021/10/16 03:30:18;;;;;;;19.08;2.70;;;5.70;99.90;;;;;;4961962;28;20142;-69
2021/10/16 03:32:43;;;;;;;17.65;2.42;;;5.50;99.90;;;;;;4977880;28;20034;-69
2021/10/16 03:35:09;;;;;;;11.85;3.00;;;5.60;99.90;;;;;;4993977;28;20676;-69
2021/10/16 03:37:35;;;;;;;11.10;2.13;;;;;;;;;;4976630;28;20081;-68
2021/10/16 03:40:01;;;;;;;26.60;2.95;;;5.90;99.90;;;;;;4994141;28;20030;-68
2021/10/16 03:42:26;;;;;;;14.65;2.63;;;6.00;99.90;;;;;;4978165;28;20151;-68
2021/10/16 03:45:02;;;;;;;29.25;3.53;;;6.10;99.90;;;;;;4995280;28;20098;-68
2021/10/16 03:47:28;;;;;;;21.20;4.03;;;;;;;;;;4975779;28;20038;-68
2021/10/16 03:49:55;;;;;;;12.63;2.33;;;;;;;;;;4991912;28;20033;-67
2021/10/16 03:52:21;;;;;;;14.52;2.45;;;;;;;;;;4979237;28;20411;-67
2021/10/16 03:54:49;;;;;;;13.27;2.80;;;;;;;;;;4996067;28;20031;-66
2021/10/16 03:57:15;;;;;;;16.33;3.40;;;;;;;;;;4978503;28;20066;-66
2021/10/16 03:59:43;;;;;;;12.95;2.42;;;;;;;;;;4996648;28;20036;-65
2021/10/16 04:02:09;;;;;;;16.02;2.63;;;;;;;;;;4979774;28;20632;-65
2021/10/16 04:04:35;;;;;;;15.48;2.65;;;;;;;;;;4981295;28;20505;-65
2021/10/16 04:07:01;;;;;;;30.42;4.05;;;;;;;;;;4998048;28;20069;-65
2021/10/16 04:09:27;;;;;;;16.67;3.85;;;;;;;;;;4980954;28;20070;-66
2021/10/16 04:11:54;;;;;;;24.35;4.00;;;;;;;;;;4979458;28;20027;-66
2021/10/16 04:14:21;;;;;;;22.95;5.57;;;;;;;;;;4995755;28;20030;-66
2021/10/16 04:16:47;;;;;;;21.60;3.78;;;;;;;;;;4994721;28;20100;-66
2021/10/16 04:19:13;;;;;;;12.90;3.10;;;;;;;;;;4990264;28;20034;-66
2021/10/16 04:21:40;;;;;;;8.68;3.50;;;;;;;;;;4977031;28;20115;-66
2021/10/16 04:24:06;;;;;;;13.65;4.28;;;;;;;;;;4995092;28;20137;-66
2021/10/16 04:26:32;;;;;;;11.13;3.38;;;;;;;;;;4995517;28;20031;-66
2021/10/16 04:28:59;;;;;;;19.75;3.20;;;7.10;99.90;;;;;;4978742;28;20040;-66
2021/10/16 04:31:38;;;;;;;25.13;4.10;;;;;;;;;;4979321;28;20034;-66
2021/10/16 04:34:06;;;;;;;23.27;3.67;;;;;;;;;;4978089;28;20604;-66
2021/10/16 04:36:32;;;;;;;30.92;4.75;;;;;;;;;;4978060;28;20062;-66
2021/10/16 04:38:58;;;;;;;22.02;2.70;;;7.30;99.90;;;;;;4977766;28;20542;-66
2021/10/16 04:41:24;;;;;;;12.52;3.03;;;;;;;;;;4975872;28;20035;-66
2021/10/16 04:43:50;;;;;;;18.67;3.58;;;;;;;;;;4975160;28;20030;-66
2021/10/16 04:46:16;;;;;;;17.95;3.10;;;;;;;;;;4993107;28;20042;-66
2021/10/16 04:48:50;;;;;;;92.03;11.40;;;;;;;;;;4977142;28;20066;-66
2021/10/16 04:51:17;;;;;;;14.07;3.40;;;;;;;;;;4977765;28;20038;-66
2021/10/16 04:53:44;;;;;;;14.65;2.60;;;;;;;;;;4978246;28;20045;-66
2021/10/16 04:56:09;;;;;;;20.85;3.60;;;;;;;;;;4990193;28;20034;-67
2021/10/16 04:58:36;;;;;;;19.25;2.92;;;;;;;;;;4977232;28;20057;-67
2021/10/16 05:01:02;;;;;;;20.83;3.85;;;;;;;;;;4986410;28;20100;-67
2021/10/16 05:03:28;;;;;;;14.02;2.70;;;;;;;;;;4977891;28;20715;-67
2021/10/16 05:05:54;;;;;;;26.80;4.68;;;;;;;;;;4991514;28;20045;-67
2021/10/16 05:08:21;;;;;;;22.08;3.38;;;;;;;;;;4977089;28;20041;-67
2021/10/16 05:10:47;;;;;;;20.23;3.50;;;;;;;;;;4979136;28;20026;-67
2021/10/16 05:13:14;;;;;;;10.10;3.15;;;;;;;;;;4980863;28;20069;-67
2021/10/16 05:15:41;;;;;;;21.30;3.10;;;;;;;;;;4980867;28;20056;-67
2021/10/16 05:18:11;;;;;;;17.10;3.42;;;;;;;;;;4979204;28;20030;-67
2021/10/16 05:20:47;;;;;;;10.60;2.63;;;;;;;;;;4981075;28;20038;-67
2021/10/16 05:23:13;;;;;;;20.02;3.20;;;;;;;;;;4980769;28;20026;-64
2021/10/16 05:25:39;;;;;;;21.05;3.50;;;;;;;;;;4990171;28;20041;-64
2021/10/16 05:28:05;;;;;;;19.05;3.50;;;;;;;;;;4993819;28;20026;-64
2021/10/16 05:30:31;;;;;;;27.75;4.07;;;;;;;;;;4993372;28;20034;-64
2021/10/16 05:32:57;;;;;;;19.77;3.22;;;;;;;;;;4982421;28;20034;-64
2021/10/16 05:35:23;;;;;;;22.00;3.63;;;;;;;;;;4991198;28;20031;-64
2021/10/16 05:37:50;;;;;;;24.65;3.45;;;;;;;;;;4980629;28;20031;-64
2021/10/16 05:40:18;;;;;;;30.33;4.85;;;;;;;;;;4980870;28;20027;-64
2021/10/16 05:42:44;;;;;;;27.88;4.00;;;;;;;;;;4994172;28;20519;-64
2021/10/16 05:45:10;;;;;;;24.75;3.35;;;;;;;;;;4978103;28;20038;-63
2021/10/16 05:47:37;;;;;;;11.57;3.25;;;;;;;;;;4980065;28;20027;-63
2021/10/16 05:50:06;;;;;;;284.58;113.53;;;;;;;;;;4963559;28;20851;-63
2021/10/16 05:52:33;;;;;;;49.90;13.65;;;;;;;;;;4980007;28;20737;-64
2021/10/16 05:54:59;;;;;;;21.52;4.80;;;;;;;;;;4980241;28;20030;-65
2021/10/16 05:57:26;;;;;;;12.38;3.22;;;;;;;;;;4980018;28;20034;-64
2021/10/16 05:59:52;;;;;;;15.63;2.90;;;;;;;;;;4997686;28;20035;-64
2021/10/16 06:02:18;;;;;;;25.30;3.13;;;;;;;;;;4978793;28;20026;-64
2021/10/16 06:04:49;;;;;;;18.65;3.38;;;;;;;;;;4980011;28;20108;-64
2021/10/16 06:07:15;;;;;;;16.42;2.95;;;7.60;99.90;;;;;;4995348;28;20478;-64
2021/10/16 06:09:42;;;;;;;15.57;3.20;;;7.50;99.90;;;;;;4993375;28;20027;-64
2021/10/16 06:12:08;;;;;;;16.05;3.38;;;;;;;;;;4994765;28;20061;-64
2021/10/16 06:14:34;;;;;;;13.40;2.88;;;7.50;99.90;;;;;;4977819;28;20039;-64
2021/10/16 06:17:12;;;;;;;11.73;3.33;;;;;;;;;;4979377;28;20141;-64
2021/10/16 06:19:39;;;;;;;21.33;3.45;;;;;;;;;;4980767;28;20118;-64
2021/10/16 06:22:05;;;;;;;28.85;5.00;;;;;;;;;;4980414;28;20042;-64
2021/10/16 06:24:31;;;;;;;26.67;3.60;;;;;;;;;;4979091;28;20057;-64
2021/10/16 06:26:56;;;;;;;14.68;2.83;;;7.70;99.90;;;;;;4978476;28;20030;-64
2021/10/16 06:29:22;;;;;;;19.85;3.38;;;7.90;99.90;;;;;;4980061;28;20122;-64
2021/10/16 06:31:48;;;;;;;16.00;3.88;;;;;;;;;;4980944;28;20454;-64
2021/10/16 06:34:14;;;;;;;21.17;6.88;;;;;;;;;;4983434;28;20053;-64
2021/10/16 06:36:41;;;;;;;66.55;28.55;;;;;;;;;;4979801;28;20169;-64
2021/10/16 06:39:07;;;;;;;54.35;26.20;;;;;;;;;;4977126;28;20054;-64
2021/10/16 06:41:39;;;;;;;34.15;18.92;;;;;;;;;;4979666;28;20038;-64
2021/10/16 06:44:25;;;;;;;42.60;15.60;;;;;;;;;;4980738;28;20113;-64
2021/10/16 06:46:58;;;;;;;40.55;19.38;;;;;;;;;;4978992;28;20048;-64
2021/10/16 06:49:26;;;;;;;29.98;15.70;;;;;;;;;;4978673;28;20030;-64
2021/10/16 06:51:53;;;;;;;21.77;10.02;;;;;;;;;;4978759;28;20027;-64
2021/10/16 06:54:19;;;;;;;31.38;12.82;;;;;;;;;;4978505;28;20406;-64
2021/10/16 06:56:46;;;;;;;34.28;12.38;;;;;;;;;;4993668;28;20046;-64
2021/10/16 06:59:14;;;;;;;89.32;34.35;;;;;;;;;;4976596;28;20034;-64
2021/10/16 07:01:40;;;;;;;76.60;26.40;;;;;;;;;;4980053;28;20427;-64
2021/10/16 07:04:26;;;;;;;29.30;10.90;;;;;;;;;;4979108;28;20899;-64
2021/10/16 07:06:56;;;;;;;31.15;9.18;;;;;;;;;;4979384;28;20557;-64
2021/10/16 07:09:28;;;;;;;26.50;8.38;;;;;;;;;;4977317;28;20376;-64
2021/10/16 07:11:55;;;;;;;24.13;6.32;;;;;;;;;;4980746;28;20045;-64
2021/10/16 07:14:21;;;;;;;22.85;7.10;;;;;;;;;;4981729;28;20129;-65
2021/10/16 07:16:49;;;;;;;21.23;6.40;;;;;;;;;;4977067;28;20045;-64
2021/10/16 07:19:15;;;;;;;20.58;5.63;;;;;;;;;;4981508;28;20038;-64
2021/10/16 07:21:41;;;;;;;16.58;4.45;;;;;;;;;;4983056;28;20046;-64
2021/10/16 07:24:07;;;;;;;17.35;4.43;;;;;;;;;;4979923;28;20030;-64
2021/10/16 07:26:33;;;;;;;19.77;5.22;;;;;;;;;;4980737;28;20388;-67
2021/10/16 07:28:59;;;;;;;19.73;4.80;;;;;;;;;;4980423;28;20049;-68
2021/10/16 07:31:28;;;;;;;19.60;4.00;;;;;;;;;;4978292;28;20034;-67
2021/10/16 07:33:56;;;;;;;26.10;6.97;;;9.70;99.90;;;;;;4978944;28;20825;-67
2021/10/16 07:36:23;;;;;;;18.92;7.38;;;;;;;;;;4979268;28;20042;-67
2021/10/16 07:38:49;;;;;;;27.70;7.15;;;;;;;;;;4978607;28;20038;-67
2021/10/16 07:41:15;;;;;;;24.15;6.50;;;;;;;;;;4978613;28;20473;-67
2021/10/16 07:43:41;;;;;;;25.65;6.32;;;;;;;;;;4979184;28;20040;-67
2021/10/16 07:46:07;;;;;;;16.95;5.57;;;;;;;;;;4979650;28;20510;-67
2021/10/16 07:48:33;;;;;;;25.80;6.20;;;;;;;;;;4976992;28;20042;-66
2021/10/16 07:50:59;;;;;;;27.00;11.35;;;;;;;;;;4977042;28;20038;-66
2021/10/16 07:53:25;;;;;;;15.88;6.55;;;;;;;;;;4979596;28;20038;-66
2021/10/16 07:55:51;;;;;;;26.20;13.07;;;10.30;99.90;;;;;;4979821;28;20121;-67
2021/10/16 07:58:17;;;;;;;13.70;4.50;;;;;;;;;;4977458;28;20148;-66
2021/10/16 08:00:43;;;;;;;12.23;4.32;;;;;;;;;;4980109;28;20735;-67
2021/10/16 08:03:09;;;;;;;11.15;4.63;;;;;;;;;;4980808;28;20046;-67
2021/10/16 08:05:35;;;;;;;15.55;3.38;;;;;;;;;;4977821;28;20030;-67
2021/10/16 08:08:01;;;;;;;15.02;7.30;;;;;;;;;;4979264;28;20022;-67
2021/10/16 08:10:28;;;;;;;21.15;7.72;;;;;;;;;;4997317;28;20033;-67
2021/10/16 08:12:54;;;;;;;23.35;9.25;;;;;;;;;;4980632;28;20046;-67
2021/10/16 08:15:20;;;;;;;10.68;3.83;;;;;;;;;;4980636;28;20041;-67
2021/10/16 08:17:46;;;;;;;27.98;9.43;;;;;;;;;;4976338;28;20185;-67
2021/10/16 08:20:12;;;;;;;21.50;6.00;;;;;;;;;;4979309;28;20104;-67
2021/10/16 08:22:42;;;;;;;16.10;3.35;;;;;;;;;;4978454;28;20038;-67
2021/10/16 08:25:08;;;;;;;15.90;3.47;;;;;;;;;;4979039;28;20526;-67
2021/10/16 08:27:34;;;;;;;19.10;3.55;;;;;;;;;;4979087;28;20066;-67
2021/10/16 08:30:00;;;;;;;15.48;2.80;;;;;;;;;;4981546;28;20030;-67
2021/10/16 08:32:26;;;;;;;17.95;5.55;;;;;;;;;;4978773;28;20038;-67
2021/10/16 08:34:52;;;;;;;13.13;4.28;;;;;;;;;;4979818;28;20038;-67
2021/10/16 08:37:18;;;;;;;19.30;4.13;;;;;;;;;;4979426;28;20038;-67
2021/10/16 08:39:44;;;;;;;19.45;3.95;;;;;;;;;;4979713;28;20733;-67
2021/10/16 08:42:09;;;;;;;17.10;5.18;;;;;;;;;;4980466;28;20616;-67
2021/10/16 08:44:35;;;;;;;20.30;5.25;;;;;;;;;;4980206;28;20038;-67
2021/10/16 08:47:01;;;;;;;27.65;6.10;;;;;;;;;;4982651;28;20026;-67
2021/10/16 08:49:27;;;;;;;16.52;4.53;;;;;;;;;;4983054;28;20041;-68
2021/10/16 08:51:54;;;;;;;11.40;2.95;;;;;;;;;;4984580;28;20033;-67
2021/10/16 08:54:19;;;;;;;14.98;3.60;;;;;;;;;;4982068;28;20037;-66
2021/10/16 08:56:45;;;;;;;7.00;2.40;;;;;;;;;;4981924;28;20133;-67
2021/10/16 08:59:11;;;;;;;11.85;2.90;;;;;;;;;;4983102;28;20045;-67
2021/10/16 09:01:37;;;;;;;27.25;3.97;;;;;;;;;;4983228;28;20482;-67
2021/10/16 09:04:03;;;;;;;17.70;3.60;;;;;;;;;;4983149;28;20033;-68
2021/10/16 09:06:35;;;;;;;17.27;5.25;;;;;;;;;;4984515;28;20044;-67
2021/10/16 09:09:01;;;;;;;13.50;4.57;;;;;;;;;;4982561;28;20034;-67
2021/10/16 09:11:27;;;;;;;33.78;7.80;;;;;;;;;;4983066;28;20034;-67
2021/10/16 09:13:53;;;;;;;20.75;5.38;;;;;;;;;;4982794;28;20081;-67
2021/10/16 09:16:19;;;;;;;21.23;3.28;;;;;;;;;;4995585;28;20038;-67
2021/10/16 09:18:45;;;;;;;14.63;3.38;;;;;;;;;;4980674;28;20038;-67
2021/10/16 09:21:11;;;;;;;10.43;3.10;;;;;;;;;;4983283;28;20034;-67
2021/10/16 09:23:37;;;;;;;13.48;3.30;;;;;;;;;;4982204;28;20109;-67
2021/10/16 09:26:06;;;;;;;16.35;3.63;;;;;;;;;;4981999;28;20026;-66
2021/10/16 09:28:32;;;;;;;14.23;3.25;;;;;;;;;;4980817;28;20129;-67
2021/10/16 09:30:58;;;;;;;13.95;3.25;;;;;;;;;;4983161;28;20073;-69
2021/10/16 09:33:24;;;;;;;22.63;3.53;;;;;;;;;;4983678;28;20037;-66
2021/10/16 09:35:50;;;;;;;15.32;4.40;;;;;;;;;;4983927;28;20086;-67
2021/10/16 09:38:16;;;;;;;25.90;10.25;;;;;;;;;;4982855;28;20097;-67
2021/10/16 09:40:42;;;;;;;17.45;4.65;;;;;;;;;;4983130;28;20037;-67
2021/10/16 09:43:08;;;;;;;13.20;3.83;;;;;;;;;;4982111;28;20041;-67
2021/10/16 09:45:34;;;;;;;10.75;2.83;;;;;;;;;;4982246;28;20034;-67
2021/10/16 09:48:00;;;;;;;13.38;3.53;;;;;;;;;;4981757;28;20069;-67
2021/10/16 09:50:26;;;;;;;17.27;4.28;;;;;;;;;;4979392;28;20031;-67
2021/10/16 09:52:53;;;;;;;10.02;3.97;;;;;;;;;;4982122;28;20630;-67
2021/10/16 09:55:18;;;;;;;18.00;4.53;;;;;;;;;;4982196;28;20069;-67
2021/10/16 09:57:44;;;;;;;14.50;4.35;;;;;;;;;;4980586;28;20034;-68
2021/10/16 10:00:10;;;;;;;14.45;2.38;;;;;;;;;;4981685;28;20042;-67
2021/10/16 10:02:39;;;;;;;12.68;3.90;;;;;;;;;;4981150;28;20034;-67
2021/10/16 10:05:05;;;;;;;8.82;2.50;;;;;;;;;;4979958;28;20103;-67
2021/10/16 10:07:31;;;;;;;8.38;2.53;;;;;;;;;;4990880;28;20061;-67
2021/10/16 10:09:57;;;;;;;26.98;8.65;;;;;;;;;;4981809;28;20053;-67
2021/10/16 10:12:23;;;;;;;13.88;2.88;;;;;;;;;;4981533;28;20030;-67
2021/10/16 10:14:49;;;;;;;5.43;2.72;;;;;;;;;;4980847;28;20117;-67
2021/10/16 10:17:15;;;;;;;18.40;3.67;;;;;;;;;;4980879;28;20070;-67
2021/10/16 10:19:41;;;;;;;18.95;3.75;;;;;;;;;;4981580;28;20042;-67
2021/10/16 10:22:07;;;;;;;12.93;3.08;;;;;;;;;;4979850;28;20042;-67
2021/10/16 10:24:33;;;;;;;20.67;3.58;;;;;;;;;;4981229;28;20891;-67
2021/10/16 10:26:59;;;;;;;12.13;3.08;;;;;;;;;;4980575;28;20498;-67
2021/10/16 10:29:25;;;;;;;10.32;3.15;;;;;;;;;;4980764;28;20445;-67
2021/10/16 10:31:52;;;;;;;14.13;3.47;;;;;;;;;;4981267;28;20038;-67
2021/10/16 10:34:17;;;;;;;18.45;3.00;;;13.20;99.90;;;;;;4980956;28;20042;-67
2021/10/16 10:36:43;;;;;;;20.85;3.95;;;13.80;99.90;;;;;;4980272;28;20445;-68
2021/10/16 10:39:09;;;;;;;14.73;2.80;;;;;;;;;;4979606;28;20034;-67
2021/10/16 10:41:35;;;;;;;13.57;2.25;;;;;;;;;;4980686;28;20137;-68
2021/10/16 10:44:02;;;;;;;8.07;2.85;;;;;;;;;;4980050;28;20537;-67
2021/10/16 10:46:28;;;;;;;10.02;2.38;;;;;;;;;;4980635;28;20030;-67
2021/10/16 10:48:54;;;;;;;14.52;3.33;;;;;;;;;;4979797;28;20618;-67
2021/10/16 10:51:20;;;;;;;13.00;2.20;;;;;;;;;;4981047;28;20202;-67
2021/10/16 10:53:46;;;;;;;10.23;2.70;;;;;;;;;;4980309;28;20034;-70
2021/10/16 10:56:14;;;;;;;18.75;4.03;;;;;;;;;;4993955;28;20039;-68
2021/10/16 10:58:40;;;;;;;6.80;1.65;;;;;;;;;;4978976;28;20135;-68
2021/10/16 11:01:06;;;;;;;5.70;1.42;;;;;;;;;;4979241;28;20100;-69
2021/10/16 11:03:32;;;;;;;6.97;1.67;;;;;;;;;;4976880;28;20046;-68
2021/10/16 11:05:58;;;;;;;6.13;1.38;;;;;;;;;;4979463;28;20030;-69
2021/10/16 11:08:24;;;;;;;3.03;0.90;;;;;;;;;;4980728;28;20080;-68
2021/10/16 11:10:50;;;;;;;7.32;1.45;;;;;;;;;;4980322;28;20827;-68
2021/10/16 11:13:16;;;;;;;5.70;1.25;;;;;;;;;;4980216;28;20916;-68
2021/10/16 11:15:42;;;;;;;7.28;1.25;;;;;;;;;;4979196;28;20372;-68
2021/10/16 11:18:08;;;;;;;3.28;1.08;;;;;;;;;;4981977;28;20038;-69
2021/10/16 11:20:34;;;;;;;4.25;1.00;;;;;;;;;;4979815;28;20027;-68
2021/10/16 11:23:00;;;;;;;5.28;1.70;;;;;;;;;;4980756;28;20042;-71
2021/10/16 11:25:26;;;;;;;15.25;1.92;;;;;;;;;;4980779;28;20040;-71
2021/10/16 11:27:52;;;;;;;8.77;2.80;;;;;;;;;;4982311;28;20046;-70
2021/10/16 11:30:18;;;;;;;5.05;1.73;;;;;;;;;;4980004;28;20062;-71
2021/10/16 11:32:44;;;;;;;5.57;1.67;;;;;;;;;;4981067;28;20119;-71
2021/10/16 11:35:10;;;;;;;8.43;1.83;;;;;;;;;;4980655;28;20045;-71
2021/10/16 11:37:36;;;;;;;7.72;1.75;;;;;;;;;;4980188;28;20038;-70
2021/10/16 11:40:02;;;;;;;5.55;1.45;;;;;;;;;;4981152;28;20038;-71
2021/10/16 11:42:28;;;;;;;6.88;1.38;;;;;;;;;;4978073;28;20116;-71
2021/10/16 11:44:54;;;;;;;4.45;1.17;;;;;;;;;;4979135;28;20030;-71
2021/10/16 11:47:20;;;;;;;5.47;1.27;;;;;;;;;;4979079;28;20035;-70
2021/10/16 11:49:46;;;;;;;5.68;1.50;;;;;;;;;;4978750;28;20508;-70
2021/10/16 11:52:12;;;;;;;7.68;1.80;;;;;;;;;;4979792;28;20038;-70
2021/10/16 11:54:38;;;;;;;4.55;1.52;;;;;;;;;;4979497;28;20034;-70
2021/10/16 11:57:04;;;;;;;5.15;1.60;;;;;;;;;;4979771;28;20038;-70
2021/10/16 11:59:30;;;;;;;7.75;1.70;;;;;;;;;;4979804;28;20035;-70
2021/10/16 12:01:56;;;;;;;8.70;1.30;;;;;;;;;;4979359;28;20069;-70
2021/10/16 12:04:22;;;;;;;6.78;1.08;;;;;;;;;;4994032;28;20054;-70
2021/10/16 12:06:50;;;;;;;4.22;1.02;;;;;;;;;;4980374;28;20022;-70
2021/10/16 12:09:16;;;;;;;4.82;1.10;;;;;;;;;;4978868;28;20045;-70
2021/10/16 12:11:42;;;;;;;2.83;0.88;;;;;;;;;;4980739;28;20042;-70
2021/10/16 12:14:09;;;;;;;6.70;1.42;;;;;;;;;;4979987;28;20117;-70
2021/10/16 12:16:35;;;;;;;5.70;1.10;;;;;;;;;;4977344;28;20042;-70
2021/10/16 12:19:01;;;;;;;1.65;0.85;;;;;;;;;;4979072;28;20050;-70
2021/10/16 12:21:27;;;;;;;5.38;1.40;;;;;;;;;;4978513;28;20038;-70
2021/10/16 12:23:53;;;;;;;10.23;1.85;;;;;;;;;;4980758;28;20458;-70
2021/10/16 12:26:22;;;;;;;4.47;0.93;;;;;;;;;;4980222;28;20030;-70
2021/10/16 12:28:48;;;;;;;6.32;1.30;;;;;;;;;;4978756;28;20147;-69
2021/10/16 12:31:14;;;;;;;12.23;1.40;;;13.70;99.90;;;;;;4993466;28;20642;-70
2021/10/16 12:33:40;;;;;;;3.88;1.10;;;;;;;;;;4978676;28;20088;-70
2021/10/16 12:36:06;;;;;;;5.10;1.23;;;;;;;;;;4979298;28;20042;-70
2021/10/16 12:38:32;;;;;;;6.10;1.20;;;;;;;;;;4979688;28;20030;-69
2021/10/16 12:40:58;;;;;;;5.60;1.40;;;;;;;;;;4979524;28;20061;-68
2021/10/16 12:43:24;;;;;;;6.22;2.08;;;;;;;;;;4979130;28;20026;-69
2021/10/16 12:45:49;;;;;;;3.35;0.90;;;;;;;;;;4978152;28;20611;-69
2021/10/16 12:48:15;;;;;;;6.47;1.33;;;;;;;;;;4978934;28;20018;-69
2021/10/16 12:50:41;;;;;;;7.15;1.80;;;;;;;;;;4978393;28;20030;-69
2021/10/16 12:53:07;;;;;;;6.43;1.50;;;;;;;;;;4979440;28;20069;-69
2021/10/16 12:55:33;;;;;;;6.72;1.58;;;;;;;;;;4980073;28;20042;-69
2021/10/16 12:58:00;;;;;;;7.00;1.33;;;;;;;;;;4978351;28;20049;-69
2021/10/16 13:00:25;;;;;;;1.98;0.90;;;;;;;;;;4979379;28;20050;-69
2021/10/16 13:02:51;;;;;;;6.35;3.28;;;;;;;;;;4980366;28;20038;-68
2021/10/16 13:05:17;;;;;;;7.25;2.40;;;;;;;;;;4979083;28;20097;-70
2021/10/16 13:07:43;;;;;;;4.70;1.20;;;;;;;;;;4978865;28;20085;-70
2021/10/16 13:10:09;;;;;;;4.28;1.00;;;;;;;;;;4991189;28;20035;-69
2021/10/16 13:12:35;;;;;;;6.55;1.33;;;;;;;;;;4978746;28;20041;-70
2021/10/16 13:15:01;;;;;;;6.60;1.55;;;;;;;;;;4990708;28;20034;-71
2021/10/16 13:17:27;;;;;;;4.70;1.45;;;;;;;;;;4978108;28;20038;-71
2021/10/16 13:19:54;;;;;;;8.55;2.55;;;;;;;;;;4978472;28;20034;-71
2021/10/16 13:22:20;;;;;;;7.25;1.70;;;;;;;;;;4977764;28;20126;-71
2021/10/16 13:24:45;;;;;;;6.10;1.20;;;;;;;;;;4978233;28;20031;-71
2021/10/16 13:27:12;;;;;;;8.73;2.75;;;;;;;;;;4977920;28;20481;-71
2021/10/16 13:29:38;;;;;;;6.30;2.70;;;;;;;;;;4978674;28;20092;-71
2021/10/16 13:32:03;;;;;;;6.00;2.55;;;;;;;;;;4981067;28;20613;-71
2021/10/16 13:34:29;;;;;;;10.00;1.92;;;;;;;;;;4982393;28;20801;-71
2021/10/16 13:36:55;;;;;;;9.35;2.22;;;;;;;;;;4982396;28;20109;-71
2021/10/16 13:39:21;;;;;;;6.53;1.70;;;;;;;;;;4992013;28;20041;-71
2021/10/16 13:41:47;;;;;;;7.75;2.80;;;12.20;99.90;;;;;;4980021;28;20038;-71
2021/10/16 13:44:15;;;;;;;5.50;1.30;;;;;;;;;;4982779;28;20590;-71
2021/10/16 13:46:41;;;;;;;6.53;2.00;;;;;;;;;;4982625;28;20038;-71
2021/10/16 13:49:06;;;;;;;4.68;1.83;;;12.00;99.90;;;;;;4982898;28;20062;-71
2021/10/16 13:51:32;;;;;;;6.43;1.80;;;;;;;;;;4982023;28;20076;-71
2021/10/16 13:54:00;;;;;;;6.30;1.60;;;;;;;;;;4981467;28;20061;-70
2021/10/16 13:56:27;;;;;;;8.07;3.58;;;;;;;;;;4982418;28;20046;-72
2021/10/16 13:58:53;;;;;;;18.25;9.43;;;;;;;;;;4981561;28;20129;-70
2021/10/16 14:01:19;;;;;;;12.57;5.82;;;;;;;;;;4981841;28;20072;-70
2021/10/16 14:03:45;;;;;;;12.80;3.88;;;;;;;;;;4981064;28;20030;-70
2021/10/16 14:06:11;;;;;;;9.63;3.47;;;;;;;;;;4980772;28;20034;-70
2021/10/16 14:08:37;;;;;;;5.95;2.55;;;;;;;;;;4978322;28;20506;-70
2021/10/16 14:11:03;;;;;;;11.45;2.67;;;;;;;;;;4981360;28;20041;-70
2021/10/16 14:13:29;;;;;;;9.52;2.30;;;;;;;;;;4981870;28;20837;-70
2021/10/16 14:15:55;;;;;;;7.78;2.47;;;;;;;;;;4981571;28;20033;-70